Etusivu
METAR-TAF:

METAR-TAF

Lentoasemat :

Guilin, Kiina

Leveyspiiri: 25-20N, Pituuspiiri: 110-18E, korkeus merenpinnasta: 166 m

Tämänhetkinen sää

Tämä raportti tehtiin 49 minuuttia sitten, kello 13.00 UTC
Tuuli 10 kn etelästä
Lämpötila 29°C
Kosteus 62%
Ilmanpaine 1005 hPa
Näkyvyys 10 km tai enemmän
ei pilviä alle 1500 m:ssä eikä cumulonimbus-pilviä

METAR: ZGKL 241300Z 18005MPS CAVOK 29/21 Q1005 NOSIG

Aika: 21:49 (13:49 UTC)

Sääennuste

Tämä raportti tehtiin 4 tuntia ja 28 minuuttia sitten, kello 09.21 UTC
Ennuste voimassa 24. päivästä klo 12 UTC - 25. päivään klo 12 UTC
Tuuli 2 kn eri suunnista
Näkyvyys 10 km tai enemmän
Hajanaisia pilviä 4000 ft:n korkeudessa
Tulossa
25. päivästä klo 01 UTC - 25. päivään klo 02 UTC
Tuuli 14 kn etelästä

TAF: ZGKL 240921Z 2412/2512 VRB01MPS 9999 SCT040 TX35/2507Z TN24/2422Z BECMG 2501/2502 18007MPS

Säähavainnot ja -ennusteet yli 4000 lentoasemalta (METAR- ja TAF-raportit).

Käytössä olevat sääasemat on merkitty karttaan keltaisilla ja punaisilla pisteillä.

Aseta hiiri pisteen päälle nähdäksesi sääaseman nimen.

Klikkaa sitten nähdäksesi säähavainnot ja -ennusteet.

Kartan vaihtaminen: klikkaa mustalla rastilla varustettuja vihreitä pisteitä, niin voit zoomata sisään; viivalla varustettua vihreää pistettä, niin voit zoomata ulos tai vihreitä nuolia, niin pääset viereisille kartoille.


METAR-TAF: